| Date | Time | Temp. (oF) | Dew Point (oF) | Rel. Hum. (%) | Press. (in.) | Wind Dir. (deg.) | Wind Speed (mph) | Hourly Rainfall (i n.) |
|
|---|---|---|---|---|---|---|---|---|---|
| 1 | 06/04 | 24:00 | 64 | 55 | 75 | 30.19 | 290 | 4 | 0.00 |
| 2 | 06/03 | 23:00 | 65 | 56 | 73 | 30.18 | 310 | 0 | 0.00 |
| 3 | 06/03 | 22:00 | 67 | 56 | 70 | 30.14 | 270 | 2 | 0.00 |
| 4 | 06/03 | 21:00 | 69 | 57 | 66 | 30.07 | 360 | 0 | 0.00 |
| 5 | 06/03 | 20:00 | 71 | 57 | 62 | 30.06 | 310 | 2 | 0.00 |
| 6 | 06/03 | 19:00 | 74 | 58 | 58 | 30.06 | 280 | 7 | 0.00 |
| 7 | 06/03 | 18:00 | 76 | 59 | 57 | 30.07 | 320 | 9 | 0.00 |
| 8 | 06/03 | 17:00 | 76 | 60 | 58 | 30.05 | 190 | 10 | 0.00 |
| 9 | 06/03 | 16:00 | 76 | 60 | 59 | 30.05 | 320 | 7 | 0.00 |
| 10 | 06/03 | 15:00 | 73 | 59 | 63 | 30.03 | 330 | 2 | 0.00 |
| 11 | 06/03 | 14:00 | 75 | 60 | 60 | 30.03 | 350 | 6 | 0.00 |
| 12 | 06/03 | 13:00 | 76 | 61 | 62 | 30.03 | 310 | 9 | 0.00 |
| 13 | 06/03 | 12:00 | 74 | 62 | 67 | 30.05 | 300 | 10 | 0.00 |
| 14 | 06/03 | 11:00 | 74 | 61 | 66 | 30.04 | 290 | 9 | 0.00 |
| 15 | 06/03 | 10:00 | 71 | 62 | 74 | 30.03 | 10 | 9 | 0.00 |
| 16 | 06/03 | 09:00 | 69 | 65 | 88 | 30.03 | 290 | 6 | 0.00 |
| 17 | 06/03 | 08:00 | 67 | 65 | 94 | 30.03 | 300 | 2 | 0.00 |
| 18 | 06/03 | 07:00 | 64 | 61 | 93 | 30.08 | 360 | 0 | 0.00 |
| 19 | 06/03 | 06:00 | 64 | 61 | 91 | 30.07 | 360 | 0 | 0.00 |
| 20 | 06/03 | 05:00 | 65 | 62 | 91 | 30.06 | 360 | 0 | 0.00 |
| 21 | 06/03 | 04:00 | 66 | 63 | 92 | 30.05 | 360 | 0 | 0.00 |
| 22 | 06/03 | 03:00 | 66 | 63 | 92 | 30.05 | 360 | 0 | 0.00 |
| 23 | 06/03 | 02:00 | 65 | 62 | 91 | 30.05 | 360 | 0 | 0.00 |
| 24 | 06/03 | 01:00 | 65 | 62 | 91 | 30.05 | 50 | 6 | 0.00 |